Accueil
METAR-TAF:

METAR-TAF

Aéroports :

Aéroport de La Réunion Roland-Garros

Saint-Denis, Réunion

latitude: 20-53S, longitude: 055-31E, altitude: 21 m

Observation

Le bulletin a été fait il y a 24 minutes, à 21:00 UTC
Vent 14 kt de est/sud-est
Température 22°C
Humidité 65%
Pression 1023 hPa
Visibilité 10 km ou plus
Nuages fragmentés à une hauteur de 8000 ft

METAR: FMEE 192100Z AUTO 12014KT 9999 BKN080 22/15 Q1023 BECMG SHRA

Heure: 01:24 (21:24 UTC)

Prévision

Le bulletin a été fait il y a 4 heures et 24 minutes, à 17:00 UTC
Prévision valable du 19 à 18 UTC au 20 à 24 UTC
Vent 15 kt de sud-est
Visibilité 10 km ou plus
Quelques nuages à une hauteur de 3800 ft
Nuages fragmentés à une hauteur de 6600 ft
Evoluant progressivement
du 19 à 21 UTC au 19 à 23 UTC
averses de pluie

TAF: FMEE 191700Z 1918/2024 13015KT 9999 FEW038 BKN066 BECMG 1921/1923 SHRA

Observations et prévisions météorologiques de plus de 4000 aéroports (messages METAR et TAF).

Les stations disponibles sont représentées par des disques jaunes et rouges sur la carte.

Passer la souris dessus pour voir le nom de la station.

Cliquer dessus pour voir les observations et prévisions météorologiques.

Pour changer de carte: cliquez sur les boutons verts avec une croix noire pour zoomer, sur le bouton vert avec un tiret pour effectuer un zoom arrière, ou sur les flèches vertes pour les cartes adjacentes.


METAR-TAF: